createdAt,value
2017-11-08T00:00:50.987Z,86.82
2017-11-08T00:03:17.122Z,86.71
2017-11-08T00:05:43.206Z,86.78
2017-11-08T00:08:09.334Z,86.80
2017-11-08T00:10:35.426Z,86.51
2017-11-08T00:13:01.523Z,86.69
2017-11-08T00:15:27.635Z,86.80
2017-11-08T00:17:53.705Z,86.71
2017-11-08T00:20:19.795Z,86.75
2017-11-08T00:22:45.851Z,86.63
2017-11-08T00:25:12.251Z,86.43
2017-11-08T00:27:38.394Z,86.55
2017-11-08T00:30:04.616Z,86.38
2017-11-08T00:32:30.742Z,86.53
2017-11-08T00:34:56.838Z,86.69
2017-11-08T00:37:22.921Z,86.84
2017-11-08T00:39:49.042Z,86.92
2017-11-08T00:42:15.162Z,86.96
2017-11-08T00:44:41.226Z,86.97
2017-11-08T00:47:07.385Z,87.25
2017-11-08T00:49:34.332Z,87.17
2017-11-08T00:52:00.406Z,87.26
2017-11-08T00:54:26.913Z,87.51
2017-11-08T00:56:55.966Z,87.97
2017-11-08T00:59:22.070Z,88.07
2017-11-08T01:01:48.167Z,87.99
2017-11-08T01:04:14.246Z,87.85
2017-11-08T01:06:40.206Z,87.59
2017-11-08T01:09:06.450Z,87.77
2017-11-08T01:11:32.586Z,87.69
2017-11-08T01:13:58.758Z,87.46
2017-11-08T01:16:24.842Z,87.29
2017-11-08T01:18:50.987Z,87.01
2017-11-08T01:21:17.097Z,87.15
2017-11-08T01:23:43.186Z,86.94
2017-11-08T01:26:09.323Z,86.83
2017-11-08T01:28:35.479Z,86.85
2017-11-08T01:31:01.558Z,86.83
2017-11-08T01:33:27.654Z,86.11
2017-11-08T01:35:53.751Z,85.85
2017-11-08T01:38:19.801Z,86.21
2017-11-08T01:40:48.043Z,85.95
2017-11-08T01:43:14.113Z,86.29
2017-11-08T01:45:41.119Z,86.00
2017-11-08T01:48:08.435Z,85.99
2017-11-08T01:50:34.530Z,86.02
2017-11-08T01:53:00.645Z,86.18
2017-11-08T01:55:26.720Z,86.13
2017-11-08T01:57:52.773Z,85.98
2017-11-08T02:00:18.799Z,85.92
2017-11-08T02:02:44.894Z,85.69
2017-11-08T02:05:11.022Z,85.73
2017-11-08T02:07:37.163Z,85.74
2017-11-08T02:10:03.339Z,85.71
2017-11-08T02:12:29.460Z,85.74
2017-11-08T02:14:55.562Z,86.04
2017-11-08T02:17:21.663Z,85.97
2017-11-08T02:19:47.731Z,85.83
2017-11-08T02:22:13.834Z,86.02
2017-11-08T02:24:39.862Z,85.84
2017-11-08T02:27:05.995Z,85.94
2017-11-08T02:29:32.034Z,86.08
2017-11-08T02:31:58.071Z,86.37
2017-11-08T02:34:24.135Z,86.04
2017-11-08T02:36:50.174Z,86.16
2017-11-08T02:39:16.281Z,86.16
2017-11-08T02:41:42.373Z,86.37
2017-11-08T02:44:08.439Z,86.14
2017-11-08T02:46:34.521Z,86.16
2017-11-08T02:49:00.576Z,86.12
2017-11-08T02:51:26.697Z,85.89
2017-11-08T02:53:52.775Z,85.98
2017-11-08T02:56:18.860Z,86.19
2017-11-08T02:58:44.962Z,85.99
2017-11-08T03:01:11.075Z,85.86
2017-11-08T03:03:43.218Z,86.05
2017-11-08T03:06:11.082Z,85.95
2017-11-08T03:08:37.166Z,85.87
2017-11-08T03:11:03.314Z,85.94
2017-11-08T03:13:29.391Z,86.07
2017-11-08T03:15:55.482Z,86.26
2017-11-08T03:18:21.530Z,86.58
2017-11-08T03:20:47.625Z,86.23
2017-11-08T03:23:13.722Z,86.38
2017-11-08T03:25:39.818Z,86.50
2017-11-08T03:28:05.896Z,86.47
2017-11-08T03:30:31.988Z,86.56
2017-11-08T03:32:58.119Z,86.72
2017-11-08T03:35:24.166Z,86.81
2017-11-08T03:37:50.279Z,86.95
2017-11-08T03:40:16.489Z,86.88
2017-11-08T03:42:42.551Z,86.97
2017-11-08T03:45:08.599Z,87.17
2017-11-08T03:47:34.672Z,87.29
2017-11-08T03:50:00.818Z,86.83
2017-11-08T03:52:26.852Z,86.66
2017-11-08T03:54:52.983Z,86.88
2017-11-08T03:57:19.098Z,86.98
2017-11-08T03:59:45.078Z,86.93
2017-11-08T04:02:11.157Z,86.84
2017-11-08T04:04:37.245Z,86.77
2017-11-08T04:07:03.323Z,86.50
2017-11-08T04:09:29.443Z,86.50
2017-11-08T04:11:55.519Z,86.64
2017-11-08T04:14:22.198Z,86.85
2017-11-08T04:16:48.718Z,86.63
2017-11-08T04:19:14.786Z,86.57
2017-11-08T04:21:40.819Z,86.61
2017-11-08T04:24:06.943Z,86.58
2017-11-08T04:26:33.044Z,86.46
2017-11-08T04:28:59.170Z,86.40
2017-11-08T04:31:25.266Z,86.51
2017-11-08T04:33:51.456Z,86.61
2017-11-08T04:36:17.571Z,86.50
2017-11-08T04:38:43.681Z,86.51
2017-11-08T04:41:10.030Z,86.73
2017-11-08T04:43:36.062Z,86.71
2017-11-08T04:46:02.107Z,86.40
2017-11-08T04:48:30.259Z,86.39
2017-11-08T04:50:56.343Z,86.87
2017-11-08T04:53:22.686Z,87.13
2017-11-08T04:55:48.813Z,87.21
2017-11-08T04:58:14.927Z,87.24
2017-11-08T05:00:41.071Z,87.15
2017-11-08T05:03:07.292Z,87.26
2017-11-08T05:05:33.399Z,87.14
2017-11-08T05:07:59.557Z,86.81
2017-11-08T05:10:25.618Z,86.55
2017-11-08T05:12:51.701Z,86.48
2017-11-08T05:15:17.845Z,86.47
2017-11-08T05:17:43.921Z,86.12
2017-11-08T05:20:10.205Z,86.10
2017-11-08T05:22:36.744Z,86.09
2017-11-08T05:25:02.790Z,86.16
2017-11-08T05:27:28.868Z,86.27
2017-11-08T05:29:54.919Z,86.31
2017-11-08T05:32:20.995Z,86.14
2017-11-08T05:34:47.075Z,86.20
2017-11-08T05:37:13.370Z,86.28
2017-11-08T05:39:39.438Z,86.08
2017-11-08T05:42:05.530Z,86.21
2017-11-08T05:44:31.743Z,86.02
2017-11-08T05:46:57.839Z,86.21
2017-11-08T05:49:23.972Z,86.31
2017-11-08T05:51:50.457Z,86.37
2017-11-08T05:54:16.551Z,86.44
2017-11-08T05:56:42.659Z,86.19
2017-11-08T05:59:08.770Z,86.30
2017-11-08T06:01:34.847Z,86.19
2017-11-08T06:04:01.040Z,86.45
2017-11-08T06:06:27.116Z,86.82
2017-11-08T06:08:53.149Z,87.15
2017-11-08T06:11:19.207Z,87.26
2017-11-08T06:13:45.287Z,86.85
2017-11-08T06:16:11.723Z,86.89
2017-11-08T06:18:37.821Z,86.82
2017-11-08T06:21:03.906Z,86.82
2017-11-08T06:23:30.011Z,86.62
2017-11-08T06:25:56.124Z,86.43
2017-11-08T06:28:22.565Z,86.56
2017-11-08T06:30:48.675Z,86.57
2017-11-08T06:33:14.755Z,86.31
2017-11-08T06:35:40.787Z,86.25
2017-11-08T06:38:07.742Z,85.99
2017-11-08T06:40:34.235Z,85.97
2017-11-08T06:43:00.254Z,86.07
2017-11-08T06:45:26.350Z,86.01
2017-11-08T06:47:52.447Z,85.71
2017-11-08T06:50:18.563Z,86.11
2017-11-08T06:52:45.006Z,86.33
2017-11-08T06:55:11.111Z,86.27
2017-11-08T06:57:37.195Z,86.32
2017-11-08T07:00:03.208Z,86.18
2017-11-08T07:02:29.359Z,86.17
2017-11-08T07:04:55.814Z,86.46
2017-11-08T07:07:22.232Z,86.46
2017-11-08T07:09:48.317Z,86.46
2017-11-08T07:12:14.823Z,86.43
2017-11-08T07:14:40.914Z,86.33
2017-11-08T07:17:08.779Z,86.14
2017-11-08T07:19:34.955Z,86.36
2017-11-08T07:22:01.021Z,86.60
2017-11-08T07:24:27.499Z,86.36
2017-11-08T07:26:53.593Z,86.61
2017-11-08T07:29:19.678Z,86.57
2017-11-08T07:31:45.691Z,86.32
2017-11-08T07:34:11.758Z,86.22
2017-11-08T07:36:38.242Z,86.22
2017-11-08T07:39:04.346Z,86.14
2017-11-08T07:41:30.430Z,86.11
2017-11-08T07:43:56.506Z,85.95
2017-11-08T07:46:22.657Z,85.30
2017-11-08T07:48:49.066Z,85.68
2017-11-08T07:51:15.099Z,85.81
2017-11-08T07:53:41.185Z,86.22
2017-11-08T07:56:07.654Z,85.98
2017-11-08T07:58:35.738Z,86.01
2017-11-08T08:01:01.798Z,85.94
2017-11-08T08:03:28.301Z,86.17
2017-11-08T08:05:54.398Z,86.24
2017-11-08T08:08:20.546Z,86.45
2017-11-08T08:10:46.979Z,86.24
2017-11-08T08:13:13.054Z,86.27
2017-11-08T08:15:39.116Z,86.27
2017-11-08T08:18:05.572Z,86.22
2017-11-08T08:20:31.615Z,86.14
2017-11-08T08:22:57.668Z,85.73
2017-11-08T08:25:23.774Z,85.58
2017-11-08T08:27:49.889Z,85.53
2017-11-08T08:30:16.306Z,85.57
2017-11-08T08:32:42.391Z,85.48
2017-11-08T08:35:08.477Z,85.42
2017-11-08T08:37:35.002Z,85.16
2017-11-08T08:40:01.094Z,84.84
2017-11-08T08:42:27.139Z,84.99
2017-11-08T08:44:53.290Z,84.93
2017-11-08T08:47:19.391Z,84.78
2017-11-08T08:49:45.767Z,84.49
2017-11-08T08:52:11.778Z,84.45
2017-11-08T08:54:37.815Z,84.53
2017-11-08T08:57:04.330Z,84.70
2017-11-08T08:59:30.427Z,84.51
2017-11-08T09:01:56.499Z,83.96
2017-11-08T09:04:22.602Z,84.17
2017-11-08T09:06:48.670Z,84.74
2017-11-08T09:09:15.174Z,84.61
2017-11-08T09:11:41.245Z,84.45
2017-11-08T09:14:07.362Z,84.49
2017-11-08T09:16:33.452Z,84.83
2017-11-08T09:18:59.470Z,84.65
2017-11-08T09:21:25.908Z,84.65
2017-11-08T09:23:51.954Z,84.51
2017-11-08T09:26:20.983Z,84.56
2017-11-08T09:28:47.489Z,84.44
2017-11-08T09:31:19.648Z,84.24
2017-11-08T09:33:45.770Z,84.42
2017-11-08T09:36:14.774Z,84.36
2017-11-08T09:38:40.867Z,84.30
2017-11-08T09:41:06.984Z,85.13
2017-11-08T09:43:33.119Z,84.97
2017-11-08T09:46:00.513Z,84.24
2017-11-08T09:48:26.618Z,84.24
2017-11-08T09:50:52.666Z,84.42
2017-11-08T09:53:18.762Z,84.71
2017-11-08T09:55:51.947Z,84.21
2017-11-08T09:58:18.441Z,83.79
2017-11-08T10:00:51.001Z,83.76
2017-11-08T10:03:19.362Z,83.62
2017-11-08T10:05:45.395Z,83.84
2017-11-08T10:08:11.472Z,83.96
2017-11-08T10:10:38.658Z,83.84
2017-11-08T10:13:09.760Z,83.36
2017-11-08T10:15:36.243Z,82.92
2017-11-08T10:18:02.359Z,83.01
2017-11-08T10:20:28.512Z,82.78
2017-11-08T10:23:00.499Z,82.96
2017-11-08T10:25:26.562Z,83.33
2017-11-08T10:27:56.003Z,82.46
2017-11-08T10:30:22.089Z,82.36
2017-11-08T10:32:48.198Z,82.11
2017-11-08T10:35:14.609Z,82.09
2017-11-08T10:37:40.722Z,81.51
2017-11-08T10:40:06.831Z,81.22
2017-11-08T10:42:32.962Z,80.97
2017-11-08T10:44:59.056Z,80.84
2017-11-08T10:47:25.527Z,79.89
2017-11-08T10:49:54.632Z,79.78
2017-11-08T10:52:20.800Z,78.51
2017-11-08T10:54:47.217Z,79.19
2017-11-08T10:57:13.364Z,79.17
2017-11-08T10:59:45.581Z,79.24
2017-11-08T11:02:11.975Z,79.60
2017-11-08T11:04:38.028Z,79.29
2017-11-08T11:07:04.122Z,78.21
2017-11-08T11:09:30.603Z,78.03
2017-11-08T11:11:56.657Z,78.60
2017-11-08T11:14:22.767Z,78.20
2017-11-08T11:16:49.276Z,78.02
2017-11-08T11:19:20.163Z,78.49
2017-11-08T11:24:14.382Z,78.47
2017-11-08T11:26:41.391Z,78.65
2017-11-08T11:29:07.455Z,78.82
2017-11-08T11:31:33.957Z,78.23
2017-11-08T11:34:00.009Z,77.46
2017-11-08T11:36:26.039Z,77.37
2017-11-08T11:38:54.366Z,77.36
2017-11-08T11:41:22.410Z,76.33
2017-11-08T11:43:48.448Z,76.45
2017-11-08T11:46:14.526Z,76.29
2017-11-08T11:48:47.271Z,77.01
2017-11-08T11:51:13.816Z,77.45
2017-11-08T11:53:39.856Z,77.83
2017-11-08T11:56:05.889Z,76.61
2017-11-08T11:58:31.955Z,76.49
2017-11-08T12:00:58.059Z,76.93
2017-11-08T12:03:24.457Z,76.47
2017-11-08T12:05:50.531Z,76.14
2017-11-08T12:08:16.610Z,76.83
2017-11-08T12:10:42.696Z,76.67
2017-11-08T12:13:08.759Z,76.34
2017-11-08T12:15:35.320Z,76.66
2017-11-08T12:18:01.387Z,77.71
2017-11-08T12:20:28.512Z,77.21
2017-11-08T12:22:54.630Z,76.27
2017-11-08T12:25:20.703Z,75.93
2017-11-08T12:27:46.803Z,75.92
2017-11-08T12:30:12.960Z,76.69
2017-11-08T12:32:39.424Z,76.52
2017-11-08T12:35:05.740Z,76.76
2017-11-08T12:37:31.819Z,75.63
2017-11-08T12:39:57.982Z,75.11
2017-11-08T12:42:24.024Z,75.07
2017-11-08T12:44:56.428Z,75.33
2017-11-08T12:47:22.465Z,75.97
2017-11-08T12:49:48.595Z,75.49
2017-11-08T12:52:14.715Z,76.37
2017-11-08T12:54:40.779Z,75.64
2017-11-08T12:57:06.883Z,75.33
2017-11-08T12:59:33.380Z,75.76
2017-11-08T13:01:59.511Z,74.82
2017-11-08T13:04:25.540Z,75.43
2017-11-08T13:06:51.988Z,75.03
2017-11-08T13:09:18.022Z,75.33
2017-11-08T13:11:44.072Z,75.16
2017-11-08T13:14:10.584Z,74.82
2017-11-08T13:16:36.674Z,74.74
2017-11-08T13:19:02.740Z,75.43
2017-11-08T13:21:29.198Z,75.50
2017-11-08T13:23:55.409Z,75.83
2017-11-08T13:26:21.466Z,76.37
2017-11-08T13:28:48.048Z,76.40
2017-11-08T13:31:14.160Z,76.26
2017-11-08T13:33:40.171Z,76.26
2017-11-08T13:36:06.535Z,76.25
2017-11-08T13:38:32.536Z,76.53
2017-11-08T13:40:58.598Z,77.60
2017-11-08T13:43:24.743Z,77.51
2017-11-08T13:45:50.863Z,77.56
2017-11-08T13:48:17.372Z,76.26
2017-11-08T13:50:43.459Z,75.68
2017-11-08T13:53:09.628Z,75.78
2017-11-08T13:55:36.176Z,76.21
2017-11-08T13:58:02.301Z,75.99
2017-11-08T14:00:28.328Z,76.54
2017-11-08T14:02:54.866Z,76.76
2017-11-08T14:05:20.995Z,76.17
2017-11-08T14:07:47.120Z,76.12
2017-11-08T14:10:13.547Z,76.42
2017-11-08T14:12:39.637Z,76.50
2017-11-08T14:15:05.719Z,76.90
2017-11-08T14:17:32.107Z,77.05
2017-11-08T14:19:58.198Z,76.86
2017-11-08T14:22:24.279Z,77.54
2017-11-08T14:24:50.387Z,77.71
2017-11-08T14:27:16.458Z,77.91
2017-11-08T14:29:42.566Z,78.00
2017-11-08T14:32:11.700Z,78.05
2017-11-08T14:34:37.728Z,78.26
2017-11-08T14:37:03.812Z,78.25
2017-11-08T14:39:29.919Z,78.42
2017-11-08T14:41:57.797Z,78.24
2017-11-08T14:44:23.868Z,78.05
2017-11-08T14:46:49.993Z,78.21
2017-11-08T14:49:16.080Z,78.17
2017-11-08T14:51:42.147Z,78.21
2017-11-08T14:54:08.649Z,78.52
2017-11-08T14:56:34.727Z,78.78
2017-11-08T14:59:00.810Z,79.00
2017-11-08T15:01:27.197Z,78.90
2017-11-08T15:03:53.266Z,78.62
2017-11-08T15:06:19.391Z,78.81
2017-11-08T15:08:45.846Z,78.16
2017-11-08T15:11:14.818Z,78.32
2017-11-08T15:16:07.192Z,78.42
2017-11-08T15:18:33.287Z,78.58
2017-11-08T15:20:59.325Z,78.40
2017-11-08T15:23:28.403Z,79.04
2017-11-08T15:25:54.467Z,79.86
2017-11-08T15:28:20.598Z,80.78
2017-11-08T15:36:27.859Z,81.29
2017-11-08T15:38:53.942Z,81.44
2017-11-08T15:41:19.992Z,81.05
2017-11-08T15:43:46.093Z,79.61
2017-11-08T15:46:13.119Z,78.55
2017-11-08T15:48:39.588Z,77.07
2017-11-08T15:51:05.663Z,77.10
2017-11-08T15:53:31.748Z,76.90
2017-11-08T15:55:57.863Z,77.24
2017-11-08T15:58:23.948Z,78.79
2017-11-08T16:00:50.451Z,79.63
2017-11-08T16:03:16.578Z,78.65
2017-11-08T16:05:42.675Z,77.71
2017-11-08T16:08:08.772Z,78.28
2017-11-08T16:10:34.852Z,80.10
2017-11-08T16:13:01.388Z,80.27
2017-11-08T16:15:27.415Z,81.05
2017-11-08T16:17:53.587Z,81.75
2017-11-08T16:20:19.703Z,82.19
2017-11-08T16:22:45.813Z,82.75
2017-11-08T16:25:12.333Z,82.38
2017-11-08T16:27:38.423Z,81.84
2017-11-08T16:30:04.539Z,81.82
2017-11-08T16:32:30.644Z,82.43
2017-11-08T16:34:56.762Z,84.19
2017-11-08T16:37:23.288Z,86.11
2017-11-08T16:39:49.359Z,87.42
2017-11-08T16:42:15.448Z,88.30
2017-11-08T16:44:41.608Z,87.67
2017-11-08T16:47:07.806Z,87.21
2017-11-08T16:49:34.316Z,89.07
2017-11-08T16:52:00.472Z,88.40
2017-11-08T16:54:26.574Z,88.48
2017-11-08T16:56:52.683Z,89.23
2017-11-08T16:59:18.769Z,89.80
2017-11-08T17:01:45.395Z,90.65
2017-11-08T17:04:11.562Z,90.60
2017-11-08T17:06:37.714Z,90.37
2017-11-08T17:09:03.795Z,90.73
2017-11-08T17:11:29.871Z,90.77
2017-11-08T17:13:56.293Z,91.03
2017-11-08T17:16:22.368Z,90.87
2017-11-08T17:18:48.527Z,90.72
2017-11-08T17:21:14.904Z,91.33
2017-11-08T17:23:41.043Z,91.73
2017-11-08T17:26:07.167Z,91.65
2017-11-08T17:28:33.715Z,91.53
2017-11-08T17:30:59.779Z,91.12
2017-11-08T17:33:25.883Z,91.65
2017-11-08T17:35:52.303Z,91.70
2017-11-08T17:38:18.371Z,91.35
2017-11-08T17:40:44.505Z,92.28
2017-11-08T17:43:10.649Z,91.69
2017-11-08T17:45:36.800Z,92.25
2017-11-08T17:48:03.209Z,92.80
2017-11-08T17:50:29.275Z,92.86
2017-11-08T17:52:55.413Z,92.33
2017-11-08T17:55:21.924Z,92.69
2017-11-08T17:57:47.986Z,93.55
2017-11-08T18:00:14.139Z,93.83
2017-11-08T18:02:40.715Z,94.22
2017-11-08T18:05:06.852Z,93.71
2017-11-08T18:07:32.948Z,93.55
2017-11-08T18:09:59.412Z,93.13
2017-11-08T18:12:25.517Z,92.70
2017-11-08T18:14:51.657Z,91.92
2017-11-08T18:17:18.202Z,91.18
2017-11-08T18:19:44.326Z,90.92
2017-11-08T18:22:10.434Z,90.28
2017-11-08T18:24:36.915Z,90.71
2017-11-08T18:27:03.064Z,91.06
2017-11-08T18:29:29.185Z,91.61
2017-11-08T18:31:55.608Z,92.12
2017-11-08T18:34:21.704Z,93.11
2017-11-08T18:36:47.874Z,93.34
2017-11-08T18:39:14.359Z,93.71
2017-11-08T18:41:40.446Z,93.75
2017-11-08T18:44:06.582Z,94.07
2017-11-08T18:46:32.709Z,94.23
2017-11-08T18:48:58.834Z,94.12
2017-11-08T18:51:25.370Z,94.02
2017-11-08T18:53:51.488Z,94.50
2017-11-08T18:56:17.714Z,95.07
2017-11-08T18:58:43.873Z,95.42
2017-11-08T19:01:10.048Z,95.47
2017-11-08T19:03:36.598Z,95.27
2017-11-08T19:06:02.743Z,95.17
2017-11-08T19:08:28.903Z,94.85
2017-11-08T19:10:55.422Z,94.02
2017-11-08T19:13:21.496Z,92.85
2017-11-08T19:15:47.668Z,92.75
2017-11-08T19:18:14.284Z,93.73
2017-11-08T19:20:40.457Z,94.79
2017-11-08T19:23:06.664Z,94.96
2017-11-08T19:25:33.207Z,94.59
2017-11-08T19:27:59.438Z,93.85
2017-11-08T19:30:25.730Z,92.94
2017-11-08T19:32:52.259Z,92.94
2017-11-08T19:35:18.517Z,93.38
2017-11-08T19:37:44.815Z,93.38
2017-11-08T19:40:11.424Z,93.45
2017-11-08T19:42:37.724Z,93.26
2017-11-08T19:45:04.007Z,93.05
2017-11-08T19:47:30.608Z,92.89
2017-11-08T19:49:57.334Z,92.16
2017-11-08T19:52:24.397Z,91.39
2017-11-08T19:54:51.041Z,91.22
2017-11-08T19:57:17.999Z,91.60
2017-11-08T19:59:44.286Z,92.02
2017-11-08T20:02:11.004Z,92.35
2017-11-08T20:04:37.288Z,92.78
2017-11-08T20:07:03.555Z,94.08
2017-11-08T20:09:30.264Z,94.65
2017-11-08T20:11:56.561Z,95.24
2017-11-08T20:14:22.898Z,95.36
2017-11-08T20:16:49.573Z,94.34
2017-11-08T20:19:15.913Z,93.89
2017-11-08T20:21:42.149Z,93.14
2017-11-08T20:24:08.782Z,92.74
2017-11-08T20:26:35.123Z,92.28
2017-11-08T20:29:01.427Z,92.49
2017-11-08T20:31:28.097Z,92.20
2017-11-08T20:33:54.389Z,92.62
2017-11-08T20:36:20.661Z,93.46
2017-11-08T20:38:47.250Z,93.88
2017-11-08T20:41:13.539Z,94.35
2017-11-08T20:43:39.839Z,94.65
2017-11-08T20:46:06.553Z,94.84
2017-11-08T20:48:32.777Z,94.71
2017-11-08T20:50:58.913Z,94.55
2017-11-08T20:53:25.582Z,94.47
2017-11-08T20:55:51.806Z,94.78
2017-11-08T20:58:18.008Z,94.31
2017-11-08T21:00:44.231Z,93.57
2017-11-08T21:03:11.270Z,93.65
2017-11-08T21:05:37.823Z,92.92
2017-11-08T21:08:03.962Z,92.55
2017-11-08T21:10:30.168Z,92.83
2017-11-08T21:12:56.312Z,91.92
2017-11-08T21:15:22.455Z,91.14
2017-11-08T21:17:48.979Z,91.32
2017-11-08T21:20:15.107Z,91.70
2017-11-08T21:22:41.217Z,91.58
2017-11-08T21:25:07.653Z,91.55
2017-11-08T21:27:33.764Z,91.77
2017-11-08T21:29:59.956Z,91.57
2017-11-08T21:32:26.448Z,91.29
2017-11-08T21:34:52.560Z,91.84
2017-11-08T21:37:18.651Z,92.37
2017-11-08T21:39:45.133Z,92.73
2017-11-08T21:42:11.240Z,92.29
2017-11-08T21:44:37.449Z,92.45
2017-11-08T21:47:03.552Z,93.39
2017-11-08T21:49:29.656Z,93.45
2017-11-08T21:51:56.161Z,93.22
2017-11-08T21:54:22.399Z,92.13
2017-11-08T21:56:48.445Z,92.19
2017-11-08T21:59:14.955Z,92.23
2017-11-08T22:01:41.050Z,92.27
2017-11-08T22:04:07.075Z,92.09
2017-11-08T22:06:33.399Z,91.89
2017-11-08T22:08:59.469Z,92.32
2017-11-08T22:11:25.649Z,92.51
2017-11-08T22:13:51.756Z,93.63
2017-11-08T22:16:17.836Z,93.60
2017-11-08T22:18:44.280Z,94.03
2017-11-08T22:21:10.365Z,94.61
2017-11-08T22:23:36.425Z,94.80
2017-11-08T22:26:02.884Z,94.76
2017-11-08T22:28:28.965Z,94.83
2017-11-08T22:30:55.048Z,95.12
2017-11-08T22:33:21.152Z,94.97
2017-11-08T22:35:47.246Z,94.64
2017-11-08T22:38:13.684Z,93.95
2017-11-08T22:40:39.846Z,92.96
2017-11-08T22:43:05.908Z,91.77
2017-11-08T22:45:32.057Z,91.53
2017-11-08T22:47:58.097Z,91.21
2017-11-08T22:50:24.547Z,91.61
2017-11-08T22:52:50.619Z,91.79
2017-11-08T22:55:16.680Z,92.33
2017-11-08T22:57:43.192Z,93.36
2017-11-08T23:00:09.316Z,92.85
2017-11-08T23:02:35.397Z,92.29
2017-11-08T23:05:01.503Z,92.16
2017-11-08T23:07:27.608Z,92.65
2017-11-08T23:09:54.015Z,92.90
2017-11-08T23:12:20.100Z,92.82
2017-11-08T23:14:46.194Z,92.49
2017-11-08T23:17:12.313Z,92.56
2017-11-08T23:19:38.420Z,92.62
2017-11-08T23:22:04.880Z,92.70
2017-11-08T23:24:30.988Z,93.33
2017-11-08T23:26:57.126Z,93.73
2017-11-08T23:29:23.239Z,94.01
2017-11-08T23:31:49.338Z,94.38
2017-11-08T23:34:15.797Z,93.56
2017-11-08T23:36:41.902Z,92.24
2017-11-08T23:39:07.963Z,91.48
2017-11-08T23:41:34.332Z,91.71
2017-11-08T23:44:00.392Z,91.77
2017-11-08T23:46:26.503Z,91.96
2017-11-08T23:48:52.628Z,92.05
2017-11-08T23:51:18.675Z,92.05
2017-11-08T23:53:45.111Z,92.09
2017-11-08T23:56:11.230Z,91.89
2017-11-08T23:58:37.329Z,92.17
